createdAt,value
2023-03-28T00:00:24.878Z,4.17
2023-03-28T00:02:27.989Z,4.23
2023-03-28T00:04:31.710Z,4.30
2023-03-28T00:06:37.200Z,4.27
2023-03-28T00:08:47.223Z,4.20
2023-03-28T00:10:52.228Z,3.87
2023-03-28T00:12:55.389Z,4.33
2023-03-28T00:15:06.351Z,4.13
2023-03-28T00:17:14.297Z,3.97
2023-03-28T00:19:19.645Z,4.00
2023-03-28T00:21:25.463Z,4.60
2023-03-28T00:23:29.896Z,4.00
2023-03-28T00:25:36.155Z,4.43
2023-03-28T00:27:39.166Z,4.47
2023-03-28T00:29:42.757Z,4.83
2023-03-28T00:31:48.778Z,4.50
2023-03-28T00:34:01.145Z,4.27
2023-03-28T00:36:10.449Z,4.57
2023-03-28T00:38:13.952Z,4.47
2023-03-28T00:40:17.269Z,4.87
2023-03-28T00:42:27.221Z,4.87
2023-03-28T00:44:44.601Z,4.80
2023-03-28T00:46:48.428Z,4.77
2023-03-28T00:48:54.344Z,4.30
2023-03-28T00:51:23.782Z,4.63
2023-03-28T00:53:27.415Z,4.77
2023-03-28T00:55:35.689Z,4.37
2023-03-28T00:57:42.058Z,4.83
2023-03-28T00:59:48.205Z,4.80
2023-03-28T01:01:53.035Z,4.57
2023-03-28T01:04:03.126Z,5.30
2023-03-28T01:06:12.288Z,5.00
2023-03-28T01:08:33.211Z,5.17
2023-03-28T01:10:36.963Z,4.73
2023-03-28T01:12:43.305Z,5.30
2023-03-28T01:14:47.746Z,5.60
2023-03-28T01:16:51.248Z,5.37
2023-03-28T01:18:54.325Z,4.73
2023-03-28T01:21:42.262Z,4.70
2023-03-28T01:24:16.375Z,4.93
2023-03-28T01:26:48.814Z,5.20
2023-03-28T01:29:20.253Z,4.27
2023-03-28T01:31:43.968Z,4.80
2023-03-28T01:34:13.901Z,4.43
2023-03-28T01:36:56.997Z,4.50
2023-03-28T01:39:06.370Z,4.40
2023-03-28T01:41:16.712Z,5.10
2023-03-28T01:43:34.421Z,4.37
2023-03-28T01:45:44.564Z,4.80
2023-03-28T01:47:57.180Z,4.80
2023-03-28T01:50:19.696Z,5.03
2023-03-28T01:52:34.160Z,5.07
2023-03-28T01:54:49.467Z,5.13
2023-03-28T01:57:13.286Z,5.33
2023-03-28T01:59:21.391Z,5.43
2023-03-28T02:01:27.985Z,5.20
2023-03-28T02:03:34.614Z,5.20
2023-03-28T02:05:39.437Z,5.13
2023-03-28T02:07:45.387Z,5.27
2023-03-28T02:09:52.618Z,5.40
2023-03-28T02:12:00.387Z,5.27
2023-03-28T02:14:17.642Z,5.60
2023-03-28T02:16:38.505Z,5.50
2023-03-28T02:18:55.538Z,5.73
2023-03-28T02:21:07.938Z,4.97
2023-03-28T02:23:15.079Z,4.97
2023-03-28T02:25:21.356Z,5.10
2023-03-28T02:27:24.511Z,5.00
2023-03-28T02:29:29.146Z,5.00
2023-03-28T02:31:32.884Z,4.90
2023-03-28T02:33:39.419Z,5.30
2023-03-28T02:36:07.831Z,5.57
2023-03-28T02:38:17.347Z,5.47
2023-03-28T02:40:36.591Z,4.87
2023-03-28T02:43:04.367Z,5.40
2023-03-28T02:45:24.380Z,5.13
2023-03-28T02:47:35.568Z,4.67
2023-03-28T02:49:50.932Z,6.17
2023-03-28T02:52:04.831Z,5.43
2023-03-28T02:54:22.121Z,5.43
2023-03-28T02:56:37.101Z,5.80
2023-03-28T02:58:47.651Z,5.90
2023-03-28T03:00:54.093Z,5.93
2023-03-28T03:03:05.066Z,6.37
2023-03-28T03:05:09.619Z,6.13
2023-03-28T03:07:13.697Z,5.87
2023-03-28T03:09:18.304Z,5.47
2023-03-28T03:11:21.375Z,6.57
2023-03-28T03:13:26.065Z,6.13
2023-03-28T03:15:30.753Z,6.80
2023-03-28T03:17:34.110Z,6.97
2023-03-28T03:19:37.378Z,6.60
2023-03-28T03:21:41.288Z,6.80
2023-03-28T03:23:44.176Z,7.43
2023-03-28T03:25:50.725Z,7.57
2023-03-28T03:27:53.796Z,7.53
2023-03-28T03:30:00.053Z,7.40
2023-03-28T03:32:03.148Z,8.00
2023-03-28T03:34:06.142Z,7.53
2023-03-28T03:36:12.676Z,7.93
2023-03-28T03:38:15.734Z,7.37
2023-03-28T03:40:19.079Z,7.90
2023-03-28T03:42:22.151Z,8.00
2023-03-28T03:44:25.806Z,8.27
2023-03-28T03:46:30.186Z,8.27
2023-03-28T03:48:33.683Z,8.77
2023-03-28T03:50:36.709Z,9.20
2023-03-28T03:52:39.676Z,8.40
2023-03-28T03:54:44.682Z,8.53
2023-03-28T03:56:48.490Z,8.30
2023-03-28T03:58:51.542Z,8.73
2023-03-28T04:00:54.562Z,8.77
2023-03-28T04:02:59.310Z,8.57
2023-03-28T04:05:02.261Z,8.30
2023-03-28T04:07:05.141Z,9.27
2023-03-28T04:09:08.635Z,8.57
2023-03-28T04:11:15.978Z,9.07
2023-03-28T04:13:18.861Z,10.87
2023-03-28T04:15:21.654Z,9.57
2023-03-28T04:17:29.993Z,9.83
2023-03-28T04:19:40.585Z,11.10
2023-03-28T04:21:43.975Z,11.53
2023-03-28T04:23:50.940Z,11.83
2023-03-28T04:25:55.886Z,10.80
2023-03-28T04:28:03.336Z,10.83
2023-03-28T04:30:12.273Z,10.97
2023-03-28T04:32:15.344Z,10.87
2023-03-28T04:34:20.012Z,11.77
2023-03-28T04:36:25.732Z,11.30
2023-03-28T04:38:31.726Z,11.40
2023-03-28T04:40:34.637Z,11.27
2023-03-28T04:42:38.160Z,10.97
2023-03-28T04:44:41.381Z,11.43
2023-03-28T04:46:44.766Z,11.10
2023-03-28T04:48:47.993Z,10.43
2023-03-28T04:50:51.334Z,11.37
2023-03-28T04:52:56.079Z,10.30
2023-03-28T04:54:59.037Z,10.80
2023-03-28T04:57:04.647Z,10.57
2023-03-28T04:59:26.626Z,10.77
2023-03-28T05:01:29.565Z,10.00
2023-03-28T05:03:32.591Z,9.97
2023-03-28T05:05:35.973Z,10.20
2023-03-28T05:07:51.884Z,10.77
2023-03-28T05:09:56.454Z,10.90
2023-03-28T05:11:59.777Z,10.70
2023-03-28T05:14:02.747Z,10.37
2023-03-28T05:16:06.269Z,10.93
2023-03-28T05:18:09.651Z,10.23
2023-03-28T05:20:13.457Z,10.13
2023-03-28T05:22:16.243Z,11.37
2023-03-28T05:24:19.347Z,10.70
2023-03-28T05:26:23.612Z,10.37
2023-03-28T05:28:26.526Z,10.83
2023-03-28T05:30:31.094Z,10.70
2023-03-28T05:32:34.020Z,9.93
2023-03-28T05:34:36.960Z,9.73
2023-03-28T05:36:39.825Z,10.17
2023-03-28T05:38:42.589Z,10.67
2023-03-28T05:40:45.584Z,10.40
2023-03-28T05:42:49.952Z,11.93
2023-03-28T05:44:53.117Z,10.47
2023-03-28T05:46:56.093Z,10.90
2023-03-28T05:48:59.071Z,10.57
2023-03-28T05:51:09.258Z,10.77
2023-03-28T05:53:12.815Z,11.27
2023-03-28T05:55:15.795Z,10.83
2023-03-28T05:57:19.060Z,10.47
2023-03-28T05:59:26.475Z,10.07
2023-03-28T06:01:31.356Z,10.33
2023-03-28T06:03:39.717Z,9.23
2023-03-28T06:05:42.869Z,10.67
2023-03-28T06:07:46.204Z,9.80
2023-03-28T06:09:49.537Z,9.07
2023-03-28T06:11:52.405Z,9.33
2023-03-28T06:13:55.704Z,8.40
2023-03-28T06:16:00.323Z,9.17
2023-03-28T06:18:03.090Z,9.13
2023-03-28T06:20:09.423Z,8.00
2023-03-28T06:22:12.184Z,7.93
2023-03-28T06:24:15.329Z,7.47
2023-03-28T06:26:21.296Z,7.93
2023-03-28T06:28:24.046Z,7.13
2023-03-28T06:30:26.860Z,7.47
2023-03-28T06:32:31.730Z,7.13
2023-03-28T06:34:34.660Z,7.27
2023-03-28T06:36:37.443Z,7.40
2023-03-28T06:38:40.273Z,7.00
2023-03-28T06:40:43.141Z,7.60
2023-03-28T06:42:45.816Z,7.30
2023-03-28T06:44:48.628Z,6.97
2023-03-28T06:46:51.463Z,7.30
2023-03-28T06:48:55.634Z,7.33
2023-03-28T06:50:58.786Z,7.03
2023-03-28T06:53:01.765Z,7.30
2023-03-28T06:55:04.791Z,6.43
2023-03-28T06:57:07.539Z,6.30
2023-03-28T06:59:10.392Z,6.77
2023-03-28T07:01:13.330Z,6.60
2023-03-28T07:03:16.144Z,6.57
2023-03-28T07:05:20.586Z,7.10
2023-03-28T07:07:23.384Z,6.67
2023-03-28T07:09:26.272Z,5.77
2023-03-28T07:11:29.227Z,5.80
2023-03-28T07:13:32.262Z,5.30
2023-03-28T07:15:36.535Z,4.80
2023-03-28T07:17:39.633Z,5.60
2023-03-28T07:19:42.454Z,5.57
2023-03-28T07:21:46.680Z,5.17
2023-03-28T07:23:49.616Z,4.80
2023-03-28T07:25:52.360Z,5.23
2023-03-28T07:27:56.417Z,4.77
2023-03-28T07:29:59.246Z,4.70
2023-03-28T07:32:02.203Z,4.03
2023-03-28T07:34:05.359Z,4.07
2023-03-28T07:36:10.524Z,4.50
2023-03-28T07:38:14.923Z,4.37
2023-03-28T07:40:18.120Z,4.43
2023-03-28T07:42:21.697Z,4.33
2023-03-28T07:44:24.614Z,3.47
2023-03-28T07:46:29.472Z,3.50
2023-03-28T07:48:33.110Z,4.03
2023-03-28T07:50:36.528Z,4.40
2023-03-28T07:52:45.272Z,3.90
2023-03-28T07:54:49.466Z,3.93
2023-03-28T07:56:52.622Z,3.60
2023-03-28T07:58:55.647Z,4.47
2023-03-28T08:01:06.086Z,4.07
2023-03-28T08:03:09.167Z,4.47
2023-03-28T08:05:12.200Z,3.57
2023-03-28T08:07:15.577Z,3.60
2023-03-28T08:09:19.434Z,3.60
2023-03-28T08:11:23.951Z,3.23
2023-03-28T08:13:27.078Z,3.30
2023-03-28T08:15:29.876Z,3.43
2023-03-28T08:17:32.994Z,3.23
2023-03-28T08:19:35.865Z,3.03
2023-03-28T08:21:38.980Z,3.20
2023-03-28T08:23:42.091Z,2.80
2023-03-28T08:25:47.783Z,3.17
2023-03-28T08:27:51.971Z,3.27
2023-03-28T08:29:54.776Z,3.20
2023-03-28T08:31:57.592Z,2.77
2023-03-28T08:34:00.423Z,3.10
2023-03-28T08:36:03.478Z,2.83
2023-03-28T08:38:09.745Z,3.03
2023-03-28T08:40:16.718Z,2.50
2023-03-28T08:42:44.743Z,3.23
2023-03-28T08:45:08.647Z,3.23
2023-03-28T08:47:15.885Z,2.83
2023-03-28T08:49:20.174Z,2.97
2023-03-28T08:51:27.479Z,2.43
2023-03-28T08:53:34.306Z,3.00
2023-03-28T08:55:40.007Z,3.10
2023-03-28T08:57:43.503Z,3.00
2023-03-28T08:59:54.923Z,2.63
2023-03-28T09:01:58.172Z,2.90
2023-03-28T09:04:01.955Z,2.97
2023-03-28T09:06:12.133Z,2.43
2023-03-28T09:08:44.295Z,3.20
2023-03-28T09:10:56.436Z,2.70
2023-03-28T09:13:17.869Z,2.63
2023-03-28T09:15:34.802Z,2.60
2023-03-28T09:17:46.999Z,2.53
2023-03-28T09:20:06.477Z,2.50
2023-03-28T09:22:19.832Z,2.93
2023-03-28T09:24:38.846Z,2.77
2023-03-28T09:26:47.892Z,2.60
2023-03-28T09:28:57.224Z,2.67
2023-03-28T09:31:01.934Z,2.13
2023-03-28T09:33:13.204Z,2.63
2023-03-28T09:35:18.242Z,2.20
2023-03-28T09:37:45.598Z,2.43
2023-03-28T09:39:51.310Z,2.13
2023-03-28T09:42:00.886Z,2.70
2023-03-28T09:44:06.096Z,2.27
2023-03-28T09:46:14.833Z,2.20
2023-03-28T09:48:23.616Z,2.27
2023-03-28T09:50:27.169Z,2.30
2023-03-28T09:52:32.042Z,2.27
2023-03-28T09:57:08.697Z,2.17
2023-03-28T09:59:15.382Z,2.03
2023-03-28T10:01:27.682Z,2.10
2023-03-28T10:03:34.856Z,2.90
2023-03-28T10:05:45.217Z,2.13
2023-03-28T10:10:25.009Z,2.13
2023-03-28T10:12:34.448Z,4.33
2023-03-28T10:14:39.297Z,3.70
2023-03-28T10:16:43.821Z,1.93
2023-03-28T10:18:47.870Z,2.00
2023-03-28T10:20:52.150Z,2.30
2023-03-28T10:22:57.736Z,2.10
2023-03-28T10:25:01.900Z,1.93
2023-03-28T10:27:14.518Z,2.60
2023-03-28T10:29:24.469Z,1.40
2023-03-28T10:31:30.462Z,2.43
2023-03-28T10:33:36.017Z,1.97
2023-03-28T10:35:41.535Z,1.73
2023-03-28T10:37:48.207Z,1.30
2023-03-28T10:40:01.303Z,1.80
2023-03-28T10:42:04.571Z,1.43
2023-03-28T10:44:20.739Z,2.40
2023-03-28T10:46:28.809Z,2.10
2023-03-28T10:48:34.647Z,1.77
2023-03-28T10:50:45.821Z,1.60
2023-03-28T10:52:55.016Z,1.87
2023-03-28T10:55:13.559Z,1.60
2023-03-28T10:57:26.101Z,2.10
2023-03-28T10:59:46.829Z,2.03
2023-03-28T11:02:02.941Z,1.63
2023-03-28T11:04:19.819Z,1.57
2023-03-28T11:06:27.750Z,1.47
2023-03-28T11:08:37.644Z,1.43
2023-03-28T11:10:46.721Z,1.53
2023-03-28T11:13:04.290Z,1.80
2023-03-28T11:15:14.694Z,1.60
2023-03-28T11:17:28.270Z,2.00
2023-03-28T11:19:48.332Z,1.63
2023-03-28T11:21:58.229Z,2.33
2023-03-28T11:24:11.395Z,1.73
2023-03-28T11:26:21.166Z,1.80
2023-03-28T11:28:36.536Z,1.83
2023-03-28T11:30:43.537Z,1.70
2023-03-28T11:32:57.783Z,1.90
2023-03-28T11:35:32.555Z,2.00
2023-03-28T11:37:41.907Z,1.50
2023-03-28T11:39:51.057Z,2.07
2023-03-28T11:42:00.869Z,1.90
2023-03-28T11:44:10.967Z,2.00
2023-03-28T11:46:20.917Z,1.80
2023-03-28T11:48:32.101Z,2.10
2023-03-28T11:50:50.184Z,2.23
2023-03-28T11:52:57.526Z,2.00
2023-03-28T11:55:15.108Z,1.90
2023-03-28T11:57:25.450Z,1.60
2023-03-28T11:59:50.046Z,1.52
2023-03-28T12:02:05.202Z,2.20
2023-03-28T12:04:14.288Z,2.00
2023-03-28T12:06:23.545Z,1.77
2023-03-28T12:08:32.139Z,1.80
2023-03-28T12:10:37.227Z,1.83
2023-03-28T12:12:51.952Z,1.90
2023-03-28T12:14:58.459Z,1.88
2023-03-28T12:17:05.889Z,2.00
2023-03-28T12:19:13.171Z,1.90
2023-03-28T12:21:22.771Z,1.85
2023-03-28T12:23:33.638Z,2.20
2023-03-28T12:25:42.667Z,2.20
2023-03-28T12:27:57.085Z,1.80
2023-03-28T12:30:06.841Z,2.20
2023-03-28T12:32:34.706Z,2.20
2023-03-28T12:34:44.334Z,1.73
2023-03-28T12:36:54.132Z,1.60
2023-03-28T12:39:06.120Z,2.03
2023-03-28T12:41:12.586Z,2.00
2023-03-28T12:43:19.755Z,1.60
2023-03-28T12:45:29.668Z,1.73
2023-03-28T12:47:39.206Z,1.87
2023-03-28T12:49:46.275Z,2.20
2023-03-28T12:51:52.223Z,2.23
2023-03-28T12:54:03.327Z,1.90
2023-03-28T12:56:15.065Z,2.07
2023-03-28T12:58:27.189Z,2.23
2023-03-28T13:00:37.176Z,2.00
2023-03-28T13:02:49.637Z,1.73
2023-03-28T13:05:00.667Z,2.10
2023-03-28T13:07:10.995Z,1.90
2023-03-28T13:09:39.190Z,1.80
2023-03-28T13:11:51.784Z,1.90
2023-03-28T13:14:03.852Z,1.80
2023-03-28T13:16:13.571Z,1.90
2023-03-28T13:18:32.486Z,1.60
2023-03-28T13:20:37.000Z,1.70
2023-03-28T13:22:49.509Z,1.80
2023-03-28T13:24:52.720Z,2.07
2023-03-28T13:26:57.339Z,1.60
2023-03-28T13:29:01.342Z,1.80
2023-03-28T13:31:07.984Z,1.88
2023-03-28T13:33:21.102Z,1.60
2023-03-28T13:35:49.992Z,1.70
2023-03-28T13:37:53.426Z,1.80
2023-03-28T13:40:01.979Z,1.70
2023-03-28T13:42:05.095Z,1.90
2023-03-28T13:44:13.546Z,1.67
2023-03-28T13:46:20.200Z,1.60
2023-03-28T13:48:27.567Z,1.57
2023-03-28T13:50:33.532Z,1.80
2023-03-28T13:52:43.956Z,1.57
2023-03-28T13:54:53.926Z,1.70
2023-03-28T13:57:04.994Z,1.70
2023-03-28T13:59:14.257Z,1.40
2023-03-28T14:01:22.319Z,1.90
2023-03-28T14:03:27.154Z,2.00
2023-03-28T14:05:32.436Z,1.30
2023-03-28T14:07:37.135Z,1.50
2023-03-28T14:09:42.610Z,1.40
2023-03-28T14:11:46.132Z,1.30
2023-03-28T14:13:51.294Z,1.37
2023-03-28T14:15:56.038Z,1.40
2023-03-28T14:18:03.009Z,1.60
2023-03-28T14:20:11.422Z,1.40
2023-03-28T14:22:18.178Z,1.50
2023-03-28T14:24:25.321Z,1.40
2023-03-28T14:26:31.036Z,1.87
2023-03-28T14:28:34.780Z,1.50
2023-03-28T14:30:43.333Z,1.60
2023-03-28T14:32:57.632Z,1.63
2023-03-28T14:35:21.041Z,1.60
2023-03-28T14:37:25.162Z,1.77
2023-03-28T14:39:31.252Z,1.57
2023-03-28T14:41:37.574Z,1.80
2023-03-28T14:43:42.776Z,1.70
2023-03-28T14:46:03.105Z,2.00
2023-03-28T14:48:09.319Z,2.00
2023-03-28T14:50:17.792Z,1.90
2023-03-28T14:52:29.846Z,1.90
2023-03-28T14:54:39.498Z,2.10
2023-03-28T14:56:53.122Z,1.88
2023-03-28T14:59:04.742Z,1.75
2023-03-28T15:01:13.586Z,2.13
2023-03-28T15:03:20.716Z,1.90
2023-03-28T15:08:00.131Z,2.10
2023-03-28T15:10:12.004Z,2.20
2023-03-28T15:12:17.686Z,2.20
2023-03-28T15:14:30.702Z,2.00
2023-03-28T15:16:40.598Z,1.70
2023-03-28T15:18:49.443Z,1.80
2023-03-28T15:21:09.287Z,1.85
2023-03-28T15:23:17.829Z,2.07
2023-03-28T15:25:28.211Z,1.63
2023-03-28T15:27:36.075Z,1.80
2023-03-28T15:29:41.068Z,1.63
2023-03-28T15:31:44.668Z,2.10
2023-03-28T15:33:48.946Z,1.90
2023-03-28T15:36:06.418Z,2.08
2023-03-28T15:38:17.107Z,1.83
2023-03-28T15:40:40.359Z,2.30
2023-03-28T15:42:49.825Z,2.00
2023-03-28T15:45:14.340Z,2.03
2023-03-28T15:47:23.362Z,1.73
2023-03-28T15:49:26.838Z,2.42
2023-03-28T15:51:31.203Z,2.40
2023-03-28T15:53:36.194Z,2.83
2023-03-28T15:55:43.674Z,2.63
2023-03-28T15:57:48.474Z,2.05
2023-03-28T15:59:53.314Z,1.88
2023-03-28T16:02:21.222Z,2.50
2023-03-28T16:04:27.842Z,2.08
2023-03-28T16:06:42.386Z,2.38
2023-03-28T16:08:47.105Z,2.40
2023-03-28T16:10:51.488Z,2.23
2023-03-28T16:12:54.441Z,2.42
2023-03-28T16:14:59.674Z,2.30
2023-03-28T16:17:02.671Z,2.07
2023-03-28T16:19:11.265Z,2.03
2023-03-28T16:21:14.313Z,2.17
2023-03-28T16:23:17.216Z,2.10
2023-03-28T16:25:20.252Z,2.37
2023-03-28T16:27:24.709Z,2.40
2023-03-28T16:29:27.607Z,2.08
2023-03-28T16:31:31.156Z,2.30
2023-03-28T16:33:34.335Z,2.25
2023-03-28T16:35:37.792Z,2.28
2023-03-28T16:37:41.258Z,1.98
2023-03-28T16:39:44.322Z,2.13
2023-03-28T16:41:47.092Z,2.00
2023-03-28T16:43:51.213Z,2.38
2023-03-28T16:45:54.076Z,2.20
2023-03-28T16:47:57.086Z,1.97
2023-03-28T16:49:59.972Z,2.20
2023-03-28T16:52:04.520Z,2.50
2023-03-28T16:54:07.831Z,3.10
2023-03-28T16:56:12.524Z,3.13
2023-03-28T16:58:15.436Z,2.33
2023-03-28T17:00:20.779Z,2.23
2023-03-28T17:02:23.753Z,2.83
2023-03-28T17:04:29.346Z,2.40
2023-03-28T17:06:32.867Z,2.10
2023-03-28T17:08:36.381Z,2.60
2023-03-28T17:10:40.662Z,2.60
2023-03-28T17:12:43.538Z,2.60
2023-03-28T17:14:46.714Z,2.97
2023-03-28T17:16:51.070Z,3.10
2023-03-28T17:18:54.723Z,3.00
2023-03-28T17:21:02.224Z,4.47
2023-03-28T17:23:05.557Z,4.40
2023-03-28T17:25:12.207Z,3.90
2023-03-28T17:27:15.612Z,2.60
2023-03-28T17:29:18.683Z,2.50
2023-03-28T17:31:22.069Z,2.60
2023-03-28T17:33:29.374Z,2.50
2023-03-28T17:35:33.252Z,2.10
2023-03-28T17:37:38.574Z,3.00
2023-03-28T17:39:42.361Z,2.57
2023-03-28T17:41:45.368Z,2.93
2023-03-28T17:43:51.709Z,2.53
2023-03-28T17:45:55.437Z,3.03
2023-03-28T17:47:58.665Z,3.20
2023-03-28T17:50:03.632Z,3.57
2023-03-28T17:52:10.173Z,2.47
2023-03-28T17:54:13.278Z,3.20
2023-03-28T17:56:16.888Z,3.03
2023-03-28T17:58:19.927Z,2.90
2023-03-28T18:00:23.400Z,2.97
2023-03-28T18:02:26.468Z,2.80
2023-03-28T18:04:30.156Z,3.30
2023-03-28T18:06:34.535Z,3.00
2023-03-28T18:08:37.869Z,3.10
2023-03-28T18:10:41.367Z,2.90
2023-03-28T18:12:44.417Z,3.00
2023-03-28T18:14:48.386Z,2.73
2023-03-28T18:16:51.672Z,2.67
2023-03-28T18:18:55.296Z,2.73
2023-03-28T18:20:58.385Z,3.03
2023-03-28T18:23:02.803Z,2.90
2023-03-28T18:25:07.042Z,2.97
2023-03-28T18:27:10.067Z,3.10
2023-03-28T18:29:13.276Z,2.80
2023-03-28T18:31:19.460Z,3.60
2023-03-28T18:33:25.116Z,3.20
2023-03-28T18:35:28.484Z,3.60
2023-03-28T18:37:32.826Z,3.47
2023-03-28T18:39:37.268Z,3.03
2023-03-28T18:41:40.506Z,2.83
2023-03-28T18:43:45.555Z,2.77
2023-03-28T18:45:54.946Z,2.73
2023-03-28T18:48:14.049Z,2.90
2023-03-28T18:50:17.846Z,2.60
2023-03-28T18:52:21.794Z,3.07
2023-03-28T18:54:25.049Z,5.23
2023-03-28T18:56:29.192Z,4.23
2023-03-28T18:58:32.186Z,3.77
2023-03-28T19:00:35.042Z,4.83
2023-03-28T19:02:40.717Z,3.93
2023-03-28T19:04:43.625Z,4.00
2023-03-28T19:06:46.466Z,4.47
2023-03-28T19:08:49.685Z,4.37
2023-03-28T19:10:52.936Z,3.87
2023-03-28T19:12:57.101Z,3.90
2023-03-28T19:14:59.831Z,4.43
2023-03-28T19:17:03.062Z,4.43
2023-03-28T19:19:05.854Z,4.50
2023-03-28T19:21:10.521Z,4.00
2023-03-28T19:23:13.295Z,4.20
2023-03-28T19:25:16.310Z,3.97
2023-03-28T19:27:19.327Z,4.57
2023-03-28T19:29:23.439Z,4.37
2023-03-28T19:31:26.369Z,4.23
2023-03-28T19:33:30.783Z,4.20
2023-03-28T19:35:33.674Z,3.60
2023-03-28T19:37:36.500Z,3.17
2023-03-28T19:39:39.465Z,3.10
2023-03-28T19:41:42.378Z,2.87
2023-03-28T19:43:45.833Z,3.07
2023-03-28T19:45:50.018Z,2.60
2023-03-28T19:47:53.008Z,2.83
2023-03-28T19:49:55.872Z,3.07
2023-03-28T19:51:59.422Z,3.03
2023-03-28T19:54:02.516Z,3.80
2023-03-28T19:56:06.607Z,3.20
2023-03-28T19:58:10.147Z,3.80
2023-03-28T20:00:13.855Z,3.63
2023-03-28T20:02:18.048Z,4.13
2023-03-28T20:04:21.264Z,4.20
2023-03-28T20:06:24.862Z,4.07
2023-03-28T20:08:27.763Z,4.30
2023-03-28T20:10:30.814Z,4.70
2023-03-28T20:12:33.824Z,3.60
2023-03-28T20:14:36.857Z,4.40
2023-03-28T20:16:40.692Z,3.97
2023-03-28T20:18:46.232Z,3.87
2023-03-28T20:20:52.987Z,3.50
2023-03-28T20:22:58.272Z,3.40
2023-03-28T20:25:01.274Z,3.47
2023-03-28T20:27:04.358Z,3.17
2023-03-28T20:29:10.207Z,3.70
2023-03-28T20:31:13.435Z,3.93
2023-03-28T20:33:16.563Z,3.90
2023-03-28T20:35:27.432Z,3.53
2023-03-28T20:37:34.599Z,3.60
2023-03-28T20:39:37.350Z,3.60
2023-03-28T20:41:41.054Z,3.47
2023-03-28T20:43:47.621Z,4.00
2023-03-28T20:45:53.584Z,3.37
2023-03-28T20:47:58.972Z,3.83
2023-03-28T20:50:05.563Z,3.50
2023-03-28T20:52:10.823Z,3.60
2023-03-28T20:54:13.914Z,3.20
2023-03-28T20:56:17.385Z,3.10
2023-03-28T20:58:20.403Z,3.35
2023-03-28T21:00:24.757Z,2.90
2023-03-28T21:02:33.311Z,2.47
2023-03-28T21:04:36.240Z,2.40
2023-03-28T21:06:39.564Z,2.70
2023-03-28T21:08:45.853Z,2.33
2023-03-28T21:10:53.346Z,2.43
2023-03-28T21:12:59.342Z,2.60
2023-03-28T21:15:02.358Z,2.13
2023-03-28T21:17:08.410Z,2.60
2023-03-28T21:19:11.494Z,2.50
2023-03-28T21:21:16.029Z,2.10
2023-03-28T21:23:18.801Z,2.67
2023-03-28T21:25:26.158Z,2.30
2023-03-28T21:27:28.964Z,2.50
2023-03-28T21:29:33.071Z,2.43
2023-03-28T21:31:37.363Z,2.17
2023-03-28T21:33:41.418Z,2.50
2023-03-28T21:35:46.503Z,2.87
2023-03-28T21:37:49.305Z,2.37
2023-03-28T21:39:52.028Z,2.20
2023-03-28T21:41:59.269Z,2.30
2023-03-28T21:44:02.205Z,2.37
2023-03-28T21:46:05.488Z,2.40
2023-03-28T21:48:10.730Z,2.30
2023-03-28T21:50:15.108Z,2.63
2023-03-28T21:52:18.361Z,2.53
2023-03-28T21:54:21.152Z,2.60
2023-03-28T21:56:23.929Z,2.20
2023-03-28T21:58:30.713Z,2.30
2023-03-28T22:00:33.891Z,2.40
2023-03-28T22:02:36.727Z,2.30
2023-03-28T22:04:40.997Z,2.30
2023-03-28T22:06:43.754Z,2.43
2023-03-28T22:08:51.653Z,2.53
2023-03-28T22:10:57.227Z,2.50
2023-03-28T22:13:00.026Z,2.13
2023-03-28T22:15:04.611Z,2.40
2023-03-28T22:17:09.107Z,2.20
2023-03-28T22:19:13.609Z,2.30
2023-03-28T22:21:17.242Z,2.60
2023-03-28T22:23:20.177Z,2.37
2023-03-28T22:25:23.506Z,2.17
2023-03-28T22:27:26.573Z,2.20
2023-03-28T22:29:29.844Z,2.20
2023-03-28T22:31:34.044Z,2.30
2023-03-28T22:33:37.134Z,2.50
2023-03-28T22:35:40.126Z,2.13
2023-03-28T22:37:42.950Z,2.20
2023-03-28T22:39:46.521Z,2.17
2023-03-28T22:41:49.691Z,2.10
2023-03-28T22:43:52.439Z,1.87
2023-03-28T22:45:55.494Z,2.13
2023-03-28T22:48:00.338Z,2.23
2023-03-28T22:50:04.296Z,2.60
2023-03-28T22:52:07.893Z,2.13
2023-03-28T22:54:13.262Z,2.10
2023-03-28T22:56:16.047Z,2.17
2023-03-28T22:58:19.894Z,2.80
2023-03-28T23:00:23.790Z,2.37
2023-03-28T23:02:27.003Z,2.27
2023-03-28T23:04:32.962Z,2.33
2023-03-28T23:06:36.007Z,2.50
2023-03-28T23:08:38.791Z,2.17
2023-03-28T23:10:42.934Z,2.37
2023-03-28T23:12:46.107Z,2.30
2023-03-28T23:14:48.894Z,2.20
2023-03-28T23:16:52.427Z,2.27
2023-03-28T23:18:55.223Z,2.50
2023-03-28T23:20:59.685Z,2.27
2023-03-28T23:23:02.639Z,2.37
2023-03-28T23:25:05.902Z,2.50
2023-03-28T23:27:08.897Z,2.40
2023-03-28T23:29:11.995Z,2.50
2023-03-28T23:31:15.461Z,2.43
2023-03-28T23:33:18.802Z,2.77
2023-03-28T23:35:21.725Z,2.40
2023-03-28T23:37:29.705Z,2.80
2023-03-28T23:39:32.426Z,2.53
2023-03-28T23:41:35.424Z,2.40
2023-03-28T23:43:38.347Z,2.50
2023-03-28T23:45:41.280Z,2.80
2023-03-28T23:47:44.898Z,2.90
2023-03-28T23:49:48.500Z,2.90
2023-03-28T23:52:19.205Z,2.70
2023-03-28T23:54:25.956Z,2.90
2023-03-28T23:56:31.221Z,2.60
2023-03-28T23:58:34.128Z,3.00
